createdAt,value
2022-11-05T00:01:50.496Z,7.79
2022-11-05T00:04:35.955Z,7.71
2022-11-05T00:07:30.324Z,7.69
2022-11-05T00:10:13.157Z,7.61
2022-11-05T00:12:58.919Z,7.61
2022-11-05T00:15:44.146Z,7.64
2022-11-05T00:18:10.857Z,7.57
2022-11-05T00:20:37.535Z,7.48
2022-11-05T00:23:38.209Z,7.49
2022-11-05T00:26:09.772Z,7.56
2022-11-05T00:28:36.424Z,7.59
2022-11-05T00:31:13.704Z,7.60
2022-11-05T00:33:42.942Z,7.54
2022-11-05T00:36:10.953Z,7.45
2022-11-05T00:38:37.802Z,7.44
2022-11-05T00:41:04.829Z,7.49
2022-11-05T00:44:03.873Z,7.46
2022-11-05T00:46:30.642Z,7.53
2022-11-05T00:49:16.041Z,7.47
2022-11-05T00:51:42.705Z,7.49
2022-11-05T00:54:09.623Z,7.46
2022-11-05T00:56:36.381Z,7.49
2022-11-05T00:59:03.149Z,7.47
2022-11-05T01:01:30.034Z,7.40
2022-11-05T01:03:57.019Z,7.41
2022-11-05T01:06:24.139Z,7.53
2022-11-05T01:08:50.942Z,7.46
2022-11-05T01:11:35.383Z,7.47
2022-11-05T01:14:08.596Z,7.40
2022-11-05T01:16:36.420Z,7.38
2022-11-05T01:19:04.541Z,7.41
2022-11-05T01:21:31.345Z,7.41
2022-11-05T01:23:58.149Z,7.37
2022-11-05T01:26:24.937Z,7.50
2022-11-05T01:28:53.284Z,7.53
2022-11-05T01:31:20.603Z,7.43
2022-11-05T01:33:47.630Z,7.35
2022-11-05T01:36:14.417Z,7.35
2022-11-05T01:38:41.672Z,7.32
2022-11-05T01:41:09.000Z,7.31
2022-11-05T01:43:52.320Z,7.22
2022-11-05T01:46:23.374Z,7.26
2022-11-05T01:48:55.194Z,7.16
2022-11-05T01:51:27.798Z,7.13
2022-11-05T01:54:03.030Z,7.14
2022-11-05T01:56:38.079Z,7.02
2022-11-05T01:59:23.500Z,7.05
2022-11-05T02:01:51.148Z,7.04
2022-11-05T02:04:30.768Z,6.97
2022-11-05T02:06:58.192Z,6.99
2022-11-05T02:09:30.892Z,6.95
2022-11-05T02:11:58.690Z,6.90
2022-11-05T02:14:26.015Z,6.94
2022-11-05T02:17:14.738Z,6.89
2022-11-05T02:20:12.742Z,6.83
2022-11-05T02:23:03.201Z,6.90
2022-11-05T02:25:54.734Z,6.79
2022-11-05T02:28:43.512Z,6.89
2022-11-05T02:31:48.112Z,6.83
2022-11-05T02:34:41.406Z,6.69
2022-11-05T02:37:40.543Z,6.71
2022-11-05T02:40:36.095Z,6.60
2022-11-05T02:43:37.006Z,6.63
2022-11-05T02:46:14.699Z,6.56
2022-11-05T02:49:08.977Z,6.63
2022-11-05T02:51:50.885Z,6.52
2022-11-05T02:54:25.072Z,6.50
2022-11-05T02:56:53.271Z,6.52
2022-11-05T02:59:20.128Z,6.64
2022-11-05T03:01:48.285Z,6.64
2022-11-05T03:04:19.144Z,6.79
2022-11-05T03:07:07.738Z,6.84
2022-11-05T03:09:58.967Z,6.87
2022-11-05T03:12:57.370Z,6.64
2022-11-05T03:15:55.017Z,6.48
2022-11-05T03:18:27.896Z,6.42
2022-11-05T03:21:14.450Z,6.45
2022-11-05T03:23:54.360Z,6.52
2022-11-05T03:26:55.536Z,6.57
2022-11-05T03:29:50.621Z,6.50
2022-11-05T03:32:20.655Z,6.44
2022-11-05T03:34:51.686Z,6.59
2022-11-05T03:37:22.483Z,6.49
2022-11-05T03:39:54.150Z,6.48
2022-11-05T03:42:25.836Z,6.50
2022-11-05T03:44:54.284Z,6.55
2022-11-05T03:47:29.809Z,6.53
2022-11-05T03:50:23.807Z,6.53
2022-11-05T03:52:59.928Z,6.50
2022-11-05T03:55:35.436Z,6.42
2022-11-05T03:58:05.074Z,6.56
2022-11-05T04:00:32.114Z,6.50
2022-11-05T04:02:59.057Z,6.42
2022-11-05T04:05:25.968Z,6.46
2022-11-05T04:08:14.284Z,6.40
2022-11-05T04:11:17.011Z,6.37
2022-11-05T04:13:43.669Z,6.45
2022-11-05T04:16:28.974Z,6.41
2022-11-05T04:18:55.675Z,6.39
2022-11-05T04:21:41.176Z,6.38
2022-11-05T04:24:13.297Z,6.30
2022-11-05T04:26:41.115Z,6.36
2022-11-05T04:29:26.895Z,6.30
2022-11-05T04:31:54.103Z,6.34
2022-11-05T04:34:24.569Z,6.29
2022-11-05T04:36:53.149Z,6.22
2022-11-05T04:39:20.795Z,6.25
2022-11-05T04:41:48.585Z,6.25
2022-11-05T04:44:16.556Z,6.26
2022-11-05T04:46:43.599Z,6.30
2022-11-05T04:49:10.217Z,6.30
2022-11-05T04:51:36.909Z,6.29
2022-11-05T04:54:03.769Z,6.34
2022-11-05T04:56:30.477Z,6.27
2022-11-05T04:58:57.064Z,6.27
2022-11-05T05:01:25.353Z,6.34
2022-11-05T05:03:53.856Z,6.33
2022-11-05T05:06:21.432Z,6.36
2022-11-05T05:08:49.474Z,6.36
2022-11-05T05:11:18.833Z,6.29
2022-11-05T05:13:45.455Z,6.27
2022-11-05T05:16:20.118Z,6.36
2022-11-05T05:18:47.314Z,6.40
2022-11-05T05:21:33.404Z,6.42
2022-11-05T05:24:03.418Z,6.39
2022-11-05T05:26:30.203Z,6.51
2022-11-05T05:28:56.849Z,6.49
2022-11-05T05:31:23.804Z,6.46
2022-11-05T05:33:54.045Z,6.49
2022-11-05T05:36:21.884Z,6.48
2022-11-05T05:38:49.169Z,6.46
2022-11-05T05:41:16.349Z,6.45
2022-11-05T05:43:43.469Z,6.48
2022-11-05T05:46:12.307Z,6.48
2022-11-05T05:48:39.576Z,6.45
2022-11-05T05:51:09.698Z,6.46
2022-11-05T05:53:36.865Z,6.43
2022-11-05T05:56:04.879Z,6.42
2022-11-05T05:58:34.700Z,6.49
2022-11-05T06:01:03.388Z,6.43
2022-11-05T06:03:30.139Z,6.49
2022-11-05T06:06:04.533Z,6.48
2022-11-05T06:08:31.338Z,6.49
2022-11-05T06:10:59.051Z,6.54
2022-11-05T06:13:26.963Z,6.48
2022-11-05T06:15:53.993Z,6.43
2022-11-05T06:18:20.747Z,6.45
2022-11-05T06:20:47.435Z,6.49
2022-11-05T06:23:14.192Z,6.55
2022-11-05T06:25:41.568Z,6.45
2022-11-05T06:28:08.433Z,6.53
2022-11-05T06:30:35.296Z,6.46
2022-11-05T06:33:03.804Z,6.46
2022-11-05T06:35:30.777Z,6.48
2022-11-05T06:38:01.653Z,6.43
2022-11-05T06:40:29.350Z,6.44
2022-11-05T06:42:56.301Z,6.51
2022-11-05T06:45:23.082Z,6.52
2022-11-05T06:47:55.926Z,6.55
2022-11-05T06:50:23.599Z,6.59
2022-11-05T06:53:02.326Z,6.61
2022-11-05T06:55:30.788Z,6.63
2022-11-05T06:57:57.711Z,6.65
2022-11-05T07:00:25.133Z,6.70
2022-11-05T07:02:51.824Z,6.74
2022-11-05T07:05:18.708Z,6.70
2022-11-05T07:07:45.761Z,6.76
2022-11-05T07:10:15.111Z,6.80
2022-11-05T07:12:41.894Z,6.75
2022-11-05T07:15:10.114Z,6.78
2022-11-05T07:17:37.077Z,6.78
2022-11-05T07:20:05.997Z,6.89
2022-11-05T07:22:33.442Z,6.88
2022-11-05T07:25:00.455Z,6.89
2022-11-05T07:27:27.247Z,6.96
2022-11-05T07:29:53.863Z,6.89
2022-11-05T07:32:20.584Z,7.03
2022-11-05T07:34:47.266Z,7.05
2022-11-05T07:37:16.558Z,7.10
2022-11-05T07:39:43.388Z,7.14
2022-11-05T07:42:13.329Z,7.24
2022-11-05T07:44:40.062Z,7.35
2022-11-05T07:47:06.693Z,7.44
2022-11-05T07:49:33.386Z,7.57
2022-11-05T07:52:00.139Z,7.65
2022-11-05T07:54:27.145Z,7.82
2022-11-05T07:56:53.802Z,7.92
2022-11-05T07:59:20.554Z,7.97
2022-11-05T08:01:47.599Z,8.19
2022-11-05T08:04:14.467Z,8.28
2022-11-05T08:06:41.115Z,8.52
2022-11-05T08:09:07.884Z,8.66
2022-11-05T08:11:35.892Z,8.71
2022-11-05T08:14:02.574Z,8.81
2022-11-05T08:16:29.309Z,8.87
2022-11-05T08:18:56.040Z,8.89
2022-11-05T08:21:22.718Z,9.02
2022-11-05T08:23:49.380Z,9.17
2022-11-05T08:26:16.138Z,9.24
2022-11-05T08:28:42.752Z,9.50
2022-11-05T08:31:09.418Z,9.53
2022-11-05T08:33:36.186Z,9.68
2022-11-05T08:36:04.489Z,9.96
2022-11-05T08:38:31.686Z,10.16
2022-11-05T08:40:58.465Z,10.64
2022-11-05T08:43:25.597Z,10.85
2022-11-05T08:45:52.381Z,10.87
2022-11-05T08:48:19.624Z,11.26
2022-11-05T08:50:48.306Z,11.53
2022-11-05T08:53:15.859Z,11.89
2022-11-05T08:55:43.977Z,11.92
2022-11-05T08:58:13.097Z,12.46
2022-11-05T09:00:40.271Z,13.08
2022-11-05T09:03:08.717Z,12.96
2022-11-05T09:05:40.764Z,13.09
2022-11-05T09:08:10.607Z,13.61
2022-11-05T09:10:37.706Z,13.77
2022-11-05T09:13:04.949Z,14.06
2022-11-05T09:15:32.232Z,14.48
2022-11-05T09:17:59.929Z,15.26
2022-11-05T09:20:26.621Z,14.94
2022-11-05T09:22:53.527Z,14.94
2022-11-05T09:25:20.410Z,14.68
2022-11-05T09:27:47.230Z,14.06
2022-11-05T09:30:14.520Z,14.20
2022-11-05T09:32:41.651Z,13.84
2022-11-05T09:35:09.345Z,14.22
2022-11-05T09:37:37.317Z,14.05
2022-11-05T09:40:05.037Z,14.34
2022-11-05T09:42:37.912Z,13.86
2022-11-05T09:45:12.925Z,13.59
2022-11-05T09:47:44.236Z,13.76
2022-11-05T09:50:19.316Z,13.51
2022-11-05T09:52:46.147Z,13.78
2022-11-05T09:55:32.242Z,14.26
2022-11-05T09:58:06.377Z,14.09
2022-11-05T10:00:34.000Z,14.17
2022-11-05T10:03:10.095Z,14.33
2022-11-05T10:05:38.221Z,14.48
2022-11-05T10:08:12.452Z,14.53
2022-11-05T10:10:53.756Z,14.23
2022-11-05T10:13:33.278Z,14.24
2022-11-05T10:15:59.943Z,14.25
2022-11-05T10:18:28.780Z,14.34
2022-11-05T10:20:55.959Z,14.54
2022-11-05T10:23:23.552Z,14.47
2022-11-05T10:26:07.626Z,14.18
2022-11-05T10:28:35.454Z,14.29
2022-11-05T10:31:08.118Z,14.25
2022-11-05T10:33:50.177Z,14.38
2022-11-05T10:36:29.403Z,14.65
2022-11-05T10:39:10.274Z,14.89
2022-11-05T10:42:04.987Z,14.86
2022-11-05T10:44:41.341Z,15.48
2022-11-05T10:47:43.581Z,14.97
2022-11-05T10:50:13.825Z,15.51
2022-11-05T10:52:53.489Z,15.42
2022-11-05T10:55:45.599Z,15.77
2022-11-05T10:58:15.210Z,16.60
2022-11-05T11:01:03.821Z,16.27
2022-11-05T11:03:48.871Z,16.50
2022-11-05T11:06:18.461Z,16.94
2022-11-05T11:08:47.429Z,16.78
2022-11-05T11:11:30.938Z,17.03
2022-11-05T11:13:57.548Z,17.02
2022-11-05T11:16:26.335Z,17.31
2022-11-05T11:18:54.360Z,16.74
2022-11-05T11:21:24.843Z,16.46
2022-11-05T11:24:06.536Z,16.29
2022-11-05T11:26:37.706Z,16.45
2022-11-05T11:29:28.528Z,16.62
2022-11-05T11:31:56.646Z,16.66
2022-11-05T11:34:33.945Z,16.50
2022-11-05T11:37:15.347Z,16.08
2022-11-05T11:39:49.033Z,16.34
2022-11-05T11:42:31.562Z,16.01
2022-11-05T11:45:02.686Z,16.30
2022-11-05T11:47:30.155Z,15.69
2022-11-05T11:50:01.711Z,15.13
2022-11-05T11:52:37.278Z,15.26
2022-11-05T11:55:18.800Z,15.36
2022-11-05T11:57:54.584Z,14.99
2022-11-05T12:00:23.741Z,14.86
2022-11-05T12:03:12.644Z,14.70
2022-11-05T12:05:46.889Z,14.58
2022-11-05T12:08:36.852Z,14.66
2022-11-05T12:11:08.943Z,14.57
2022-11-05T12:13:51.417Z,14.39
2022-11-05T12:16:41.732Z,14.33
2022-11-05T12:19:30.057Z,14.08
2022-11-05T12:22:16.929Z,14.27
2022-11-05T12:25:02.438Z,14.49
2022-11-05T12:27:46.934Z,14.59
2022-11-05T12:30:18.374Z,14.08
2022-11-05T12:32:52.773Z,14.08
2022-11-05T12:35:47.389Z,14.22
2022-11-05T12:38:41.904Z,14.13
2022-11-05T12:41:14.705Z,14.04
2022-11-05T12:43:55.366Z,14.01
2022-11-05T12:46:25.009Z,14.20
2022-11-05T12:49:20.210Z,14.23
2022-11-05T12:52:31.421Z,14.12
2022-11-05T12:55:11.112Z,14.14
2022-11-05T12:57:41.460Z,14.15
2022-11-05T13:00:14.876Z,14.15
2022-11-05T13:03:17.032Z,14.10
2022-11-05T13:05:48.536Z,14.18
2022-11-05T13:08:21.604Z,14.13
2022-11-05T13:10:59.923Z,14.11
2022-11-05T13:13:39.477Z,14.35
2022-11-05T13:16:43.275Z,14.14
2022-11-05T13:19:39.084Z,14.21
2022-11-05T13:22:40.011Z,14.12
2022-11-05T13:25:16.780Z,14.24
2022-11-05T13:27:58.626Z,14.42
2022-11-05T13:30:31.814Z,14.44
2022-11-05T13:33:05.961Z,14.27
2022-11-05T13:35:45.054Z,14.10
2022-11-05T13:38:45.208Z,14.62
2022-11-05T13:41:34.985Z,14.83
2022-11-05T13:44:30.513Z,14.47
2022-11-05T13:47:32.460Z,14.37
2022-11-05T13:50:36.730Z,14.21
2022-11-05T13:53:25.193Z,14.26
2022-11-05T13:55:54.907Z,14.15
2022-11-05T13:58:46.406Z,13.74
2022-11-05T14:01:38.125Z,13.52
2022-11-05T14:04:05.821Z,13.38
2022-11-05T14:06:35.927Z,13.18
2022-11-05T14:09:08.514Z,13.01
2022-11-05T14:11:50.047Z,13.00
2022-11-05T14:14:23.692Z,12.82
2022-11-05T14:17:12.935Z,12.62
2022-11-05T14:20:06.279Z,12.73
2022-11-05T14:22:33.155Z,12.69
2022-11-05T14:25:01.246Z,12.61
2022-11-05T14:27:36.978Z,12.53
2022-11-05T14:30:42.935Z,12.30
2022-11-05T14:33:24.956Z,12.20
2022-11-05T14:35:54.055Z,12.15
2022-11-05T14:38:26.522Z,12.00
2022-11-05T14:41:03.104Z,12.01
2022-11-05T14:43:33.749Z,11.91
2022-11-05T14:46:09.171Z,11.86
2022-11-05T14:48:38.836Z,11.78
2022-11-05T14:51:25.013Z,11.76
2022-11-05T14:54:00.679Z,11.58
2022-11-05T14:56:27.756Z,11.51
2022-11-05T14:59:23.529Z,11.57
2022-11-05T15:01:50.221Z,11.38
2022-11-05T15:04:25.036Z,11.30
2022-11-05T15:07:04.333Z,11.24
2022-11-05T15:09:57.619Z,11.20
2022-11-05T15:12:44.659Z,10.99
2022-11-05T15:15:21.968Z,10.98
2022-11-05T15:17:58.405Z,10.94
2022-11-05T15:20:39.740Z,10.90
2022-11-05T15:23:11.793Z,10.80
2022-11-05T15:25:47.816Z,10.73
2022-11-05T15:28:31.144Z,10.60
2022-11-05T15:31:04.151Z,10.52
2022-11-05T15:33:31.441Z,10.54
2022-11-05T15:36:20.505Z,10.63
2022-11-05T15:39:08.121Z,10.44
2022-11-05T15:41:34.529Z,10.70
2022-11-05T15:44:02.727Z,10.42
2022-11-05T15:46:30.218Z,10.34
2022-11-05T15:49:00.541Z,10.28
2022-11-05T15:51:27.235Z,10.22
2022-11-05T15:54:24.332Z,10.20
2022-11-05T15:56:53.247Z,10.12
2022-11-05T15:59:22.173Z,10.10
2022-11-05T16:01:50.321Z,10.08
2022-11-05T16:04:23.629Z,9.93
2022-11-05T16:06:53.391Z,9.84
2022-11-05T16:09:22.947Z,9.84
2022-11-05T16:12:11.375Z,9.80
2022-11-05T16:14:38.379Z,9.71
2022-11-05T16:17:33.705Z,9.56
2022-11-05T16:20:00.717Z,9.49
2022-11-05T16:22:44.809Z,9.49
2022-11-05T16:25:29.579Z,9.37
2022-11-05T16:28:00.268Z,9.35
2022-11-05T16:30:28.047Z,9.34
2022-11-05T16:33:02.615Z,9.30
2022-11-05T16:35:30.096Z,9.30
2022-11-05T16:37:56.795Z,9.10
2022-11-05T16:40:25.615Z,9.05
2022-11-05T16:42:54.213Z,9.04
2022-11-05T16:45:24.455Z,8.96
2022-11-05T16:47:51.913Z,8.94
2022-11-05T16:50:25.228Z,8.85
2022-11-05T16:52:52.808Z,8.79
2022-11-05T16:55:20.088Z,8.79
2022-11-05T16:57:53.486Z,8.80
2022-11-05T17:00:21.600Z,8.66
2022-11-05T17:02:48.956Z,8.64
2022-11-05T17:05:27.789Z,8.59
2022-11-05T17:07:54.974Z,8.61
2022-11-05T17:10:23.993Z,8.56
2022-11-05T17:12:51.577Z,8.48
2022-11-05T17:15:21.921Z,8.34
2022-11-05T17:17:49.155Z,8.33
2022-11-05T17:20:25.808Z,8.33
2022-11-05T17:22:52.456Z,8.38
2022-11-05T17:25:19.100Z,8.36
2022-11-05T17:27:46.044Z,8.31
2022-11-05T17:30:13.244Z,8.30
2022-11-05T17:32:39.953Z,8.22
2022-11-05T17:35:07.519Z,8.29
2022-11-05T17:37:34.722Z,8.29
2022-11-05T17:40:02.052Z,8.26
2022-11-05T17:42:28.822Z,8.26
2022-11-05T17:44:55.465Z,8.27
2022-11-05T17:47:22.286Z,8.35
2022-11-05T17:49:49.024Z,8.31
2022-11-05T17:52:15.663Z,8.34
2022-11-05T17:54:42.391Z,8.31
2022-11-05T17:57:09.087Z,8.36
2022-11-05T17:59:36.480Z,8.37
2022-11-05T18:02:04.075Z,8.37
2022-11-05T18:04:32.443Z,8.31
2022-11-05T18:06:59.121Z,8.29
2022-11-05T18:09:26.046Z,8.32
2022-11-05T18:11:52.681Z,8.30
2022-11-05T18:14:23.835Z,8.27
2022-11-05T18:16:51.314Z,8.28
2022-11-05T18:19:18.148Z,8.21
2022-11-05T18:21:44.919Z,8.13
2022-11-05T18:24:12.244Z,8.16
2022-11-05T18:26:38.918Z,8.16
2022-11-05T18:29:06.238Z,8.13
2022-11-05T18:31:32.951Z,8.15
2022-11-05T18:34:00.251Z,8.13
2022-11-05T18:36:29.766Z,8.06
2022-11-05T18:39:01.611Z,7.99
2022-11-05T18:41:28.566Z,8.02
2022-11-05T18:43:59.856Z,8.00
2022-11-05T18:46:56.055Z,7.96
2022-11-05T18:49:14.967Z,7.91
2022-11-05T18:51:41.804Z,7.88
2022-11-05T18:54:08.908Z,7.90
2022-11-05T18:56:35.854Z,7.88
2022-11-05T18:59:30.481Z,7.81
2022-11-05T19:01:49.822Z,7.81
2022-11-05T19:04:16.693Z,7.73
2022-11-05T19:06:43.411Z,7.76
2022-11-05T19:09:12.015Z,7.73
2022-11-05T19:11:39.739Z,7.69
2022-11-05T19:14:07.236Z,7.64
2022-11-05T19:16:34.281Z,7.62
2022-11-05T19:19:03.664Z,7.62
2022-11-05T19:21:31.038Z,7.59
2022-11-05T19:24:01.288Z,7.50
2022-11-05T19:26:29.208Z,7.54
2022-11-05T19:29:00.765Z,7.44
2022-11-05T19:31:28.006Z,7.45
2022-11-05T19:33:55.385Z,7.44
2022-11-05T19:36:24.255Z,7.45
2022-11-05T19:38:59.679Z,7.50
2022-11-05T19:41:27.036Z,7.53
2022-11-05T19:43:55.033Z,7.46
2022-11-05T19:46:23.294Z,7.50
2022-11-05T19:48:50.697Z,7.47
2022-11-05T19:51:20.246Z,7.44
2022-11-05T19:53:47.048Z,7.37
2022-11-05T19:56:19.791Z,7.35
2022-11-05T19:58:46.894Z,7.31
2022-11-05T20:01:15.848Z,7.32
2022-11-05T20:03:42.767Z,7.29
2022-11-05T20:06:15.932Z,7.30
2022-11-05T20:09:14.840Z,7.37
2022-11-05T20:11:31.601Z,7.35
2022-11-05T20:13:58.613Z,7.35
2022-11-05T20:16:34.482Z,7.34
2022-11-05T20:19:01.296Z,7.34
2022-11-05T20:21:27.944Z,7.38
2022-11-05T20:23:58.848Z,7.44
2022-11-05T20:26:26.443Z,7.45
2022-11-05T20:28:53.371Z,7.45
2022-11-05T20:31:20.868Z,7.39
2022-11-05T20:33:47.710Z,7.43
2022-11-05T20:36:17.016Z,7.40
2022-11-05T20:38:50.792Z,7.33
2022-11-05T20:41:18.289Z,7.32
2022-11-05T20:43:46.739Z,7.37
2022-11-05T20:46:16.712Z,7.40
2022-11-05T20:48:44.209Z,7.34
2022-11-05T20:51:14.988Z,7.30
2022-11-05T20:53:42.202Z,7.30
2022-11-05T20:56:15.259Z,7.32
2022-11-05T20:58:41.862Z,7.40
2022-11-05T21:01:11.178Z,7.40
2022-11-05T21:03:37.957Z,7.43
2022-11-05T21:06:06.394Z,7.41
2022-11-05T21:08:33.744Z,7.37
2022-11-05T21:11:00.833Z,7.38
2022-11-05T21:13:27.855Z,7.38
2022-11-05T21:15:57.245Z,7.40
2022-11-05T21:18:26.896Z,7.34
2022-11-05T21:20:54.189Z,7.41
2022-11-05T21:23:21.257Z,7.52
2022-11-05T21:25:48.217Z,7.50
2022-11-05T21:28:15.912Z,7.55
2022-11-05T21:30:45.735Z,7.63
2022-11-05T21:33:14.100Z,7.67
2022-11-05T21:35:48.539Z,7.64
2022-11-05T21:38:17.225Z,7.74
2022-11-05T21:40:45.161Z,7.73
2022-11-05T21:43:12.829Z,7.74
2022-11-05T21:45:44.173Z,7.73
2022-11-05T21:48:11.876Z,7.79
2022-11-05T21:50:57.486Z,7.81
2022-11-05T21:53:43.524Z,7.81
2022-11-05T21:56:39.018Z,7.75
2022-11-05T21:59:24.913Z,7.82
2022-11-05T22:02:01.384Z,7.78
2022-11-05T22:04:33.728Z,7.73
2022-11-05T22:07:00.597Z,7.72
2022-11-05T22:09:28.003Z,7.71
2022-11-05T22:11:55.273Z,7.71
2022-11-05T22:14:22.074Z,7.64
2022-11-05T22:16:48.780Z,7.63
2022-11-05T22:19:15.801Z,7.63
2022-11-05T22:21:42.523Z,7.65
2022-11-05T22:24:09.404Z,7.68
2022-11-05T22:26:37.702Z,7.65
2022-11-05T22:29:05.539Z,7.67
2022-11-05T22:31:36.276Z,7.60
2022-11-05T22:34:04.957Z,7.58
2022-11-05T22:36:32.894Z,7.56
2022-11-05T22:38:59.734Z,7.64
2022-11-05T22:41:26.511Z,7.61
2022-11-05T22:43:53.228Z,7.63
2022-11-05T22:46:22.558Z,7.62
2022-11-05T22:48:50.067Z,7.52
2022-11-05T22:51:29.761Z,7.50
2022-11-05T22:53:56.840Z,7.55
2022-11-05T22:56:26.878Z,7.54
2022-11-05T22:58:54.129Z,7.55
2022-11-05T23:01:25.192Z,7.42
2022-11-05T23:03:54.380Z,7.45
2022-11-05T23:06:42.869Z,7.46
2022-11-05T23:09:33.341Z,7.41
2022-11-05T23:12:00.447Z,7.39
2022-11-05T23:14:27.507Z,7.38
2022-11-05T23:17:13.522Z,7.39
2022-11-05T23:19:59.225Z,7.38
2022-11-05T23:22:47.979Z,7.35
2022-11-05T23:25:18.039Z,7.32
2022-11-05T23:27:49.795Z,7.38
2022-11-05T23:30:23.297Z,7.32
2022-11-05T23:32:51.600Z,7.30
2022-11-05T23:35:39.276Z,7.35
2022-11-05T23:38:24.649Z,7.35
2022-11-05T23:41:09.698Z,7.32
2022-11-05T23:43:54.960Z,7.32
2022-11-05T23:46:40.088Z,7.33
2022-11-05T23:49:06.731Z,7.31
2022-11-05T23:51:33.481Z,7.25
2022-11-05T23:54:00.194Z,7.24
2022-11-05T23:56:26.841Z,7.22
2022-11-05T23:58:53.496Z,7.24
